Time;durP1;ratioP1;P1;durP2;ratioP2;P2;SDS_P1;SDS_P2;PMS_P1;PMS_P2;Temp;Humidity;BMP_temperature;BMP_pressure;BME280_temperature;BME280_humidity;BME280_pressure;Samples;Min_cycle;Max_cycle;Signal;HPM_P1;HPM_P2
2023/07/04 00:00:36;;;;;;;;;;;17.90;63.20;;;;;;5063265;28;19909;-81
2023/07/04 00:03:01;;;;;;;;;;;17.80;63.20;;;;;;5060590;28;19909;-82
2023/07/04 00:05:28;;;;;;;;;;;17.80;63.30;;;;;;5056145;28;19915;-82
2023/07/04 00:07:53;;;;;;;;;;;17.80;63.50;;;;;;5038810;28;19943;-81
2023/07/04 00:10:20;;;;;;;;;;;17.70;63.60;;;;;;5056420;28;19924;-81
2023/07/04 00:12:46;;;;;;;;;;;17.70;63.70;;;;;;5038583;28;19908;-80
2023/07/04 00:15:13;;;;;;;;;;;17.70;64.20;;;;;;5038916;28;20007;-82
2023/07/04 00:17:39;;;;;;;;;;;17.70;64.30;;;;;;5032360;28;19913;-82
2023/07/04 00:20:05;;;;;;;;;;;17.60;64.20;;;;;;5039151;28;19967;-82
2023/07/04 00:22:33;;;;;;;;;;;17.60;64.10;;;;;;5041898;28;19916;-82
2023/07/04 00:24:59;;;;;;;;;;;17.60;64.10;;;;;;5053856;28;19909;-80
2023/07/04 00:27:25;;;;;;;;;;;17.60;64.20;;;;;;5053745;28;20370;-82
2023/07/04 00:29:50;;;;;;;;;;;17.60;64.30;;;;;;5055528;28;19975;-82
2023/07/04 00:32:16;;;;;;;;;;;17.60;64.60;;;;;;5068921;28;19920;-82
2023/07/04 00:34:45;;;;;;;;;;;17.60;64.70;;;;;;5055604;28;19893;-81
2023/07/04 00:37:11;;;;;;;;;;;17.60;64.70;;;;;;5052787;28;20004;-82
2023/07/04 00:39:37;;;;;;;;;;;17.60;64.70;;;;;;5054972;28;20436;-82
2023/07/04 00:42:08;;;;;;;;;;;17.60;64.70;;;;;;5056825;28;19908;-82
2023/07/04 00:44:37;;;;;;;;;;;17.50;64.70;;;;;;5061150;28;19909;-82
2023/07/04 00:47:10;;;;;;;;;;;17.50;64.90;;;;;;5052468;28;19904;-81
2023/07/04 00:49:43;;;;;;;;;;;17.50;65.10;;;;;;5066244;28;19917;-82
2023/07/04 00:52:23;;;;;;;;;;;17.50;65.10;;;;;;5040617;28;19917;-82
2023/07/04 00:54:52;;;;;;;;;;;17.50;65.10;;;;;;5046454;28;19909;-82
2023/07/04 00:57:22;;;;;;;;;;;17.50;65.10;;;;;;5059713;28;19913;-81
2023/07/04 00:59:51;;;;;;;;;;;17.50;65.20;;;;;;5044193;28;19919;-82
2023/07/04 01:02:21;;;;;;;;;;;17.40;65.30;;;;;;5054155;28;19909;-82
2023/07/04 01:04:48;;;;;;;;;;;17.50;65.60;;;;;;5054381;28;19909;-83
2023/07/04 01:07:32;;;;;;;;;;;17.50;65.50;;;;;;5054256;28;20051;-82
2023/07/04 01:10:00;;;;;;;;;;;17.40;65.60;;;;;;5022504;28;19978;-83
2023/07/04 01:12:29;;;;;;;;;;;17.40;65.80;;;;;;5055395;28;19919;-82
2023/07/04 01:14:56;;;;;;;;;;;17.40;65.80;;;;;;5039906;28;19908;-81
2023/07/04 01:17:23;;;;;;;;;;;17.40;65.80;;;;;;5055133;28;19909;-81
2023/07/04 01:19:49;;;;;;;;;;;17.40;66.00;;;;;;5054011;28;20289;-82
2023/07/04 01:22:19;;;;;;;;;;;17.40;66.00;;;;;;5039552;28;19912;-81
2023/07/04 01:24:45;;;;;;;;;;;17.50;66.20;;;;;;5054775;28;19955;-82
2023/07/04 01:27:14;;;;;;;;;;;17.50;66.20;;;;;;5036105;28;19908;-81
2023/07/04 01:29:40;;;;;;;;;;;17.60;66.10;;;;;;5059838;28;20404;-81
2023/07/04 01:32:06;;;;;;;;;;;17.60;66.00;;;;;;5054420;28;19912;-81
2023/07/04 01:34:33;;;;;;;;;;;17.60;66.20;;;;;;5053165;28;19909;-81
2023/07/04 01:37:01;;;;;;;;;;;17.60;66.20;;;;;;5049597;28;20000;-82
2023/07/04 01:39:27;;;;;;;;;;;17.60;66.20;;;;;;5055013;28;20002;-81
2023/07/04 01:41:53;;;;;;;;;;;17.60;66.10;;;;;;5054073;28;19943;-79
2023/07/04 01:44:22;;;;;;;;;;;17.60;66.30;;;;;;5053832;28;19963;-81
2023/07/04 01:46:49;;;;;;;;;;;17.70;66.30;;;;;;5054048;28;20285;-81
2023/07/04 01:49:16;;;;;;;;;;;17.70;66.30;;;;;;5038680;28;20306;-81
2023/07/04 01:51:42;;;;;;;;;;;17.70;66.40;;;;;;5043764;28;19913;-81
2023/07/04 01:54:09;;;;;;;;;;;17.80;66.10;;;;;;5047920;28;20435;-80
2023/07/04 01:56:36;;;;;;;;;;;17.80;66.00;;;;;;5045979;28;19909;-79
2023/07/04 01:59:01;;;;;;;;;;;17.90;66.10;;;;;;5066564;28;19909;-82
2023/07/04 02:01:27;;;;;;;;;;;18.00;66.10;;;;;;5055456;28;20007;-79
2023/07/04 02:03:53;;;;;;;;;;;18.00;66.10;;;;;;5073894;28;19908;-79
2023/07/04 02:06:18;;;;;;;;;;;18.00;66.10;;;;;;5074266;28;19912;-80
2023/07/04 02:08:44;;;;;;;;;;;18.00;66.10;;;;;;5078822;28;19919;-81
2023/07/04 02:11:10;;;;;;;;;;;18.00;66.20;;;;;;5061296;28;19913;-79
2023/07/04 02:13:36;;;;;;;;;;;18.00;66.10;;;;;;5072121;28;19909;-81
2023/07/04 02:16:01;;;;;;;;;;;18.00;66.10;;;;;;5057568;28;19955;-81
2023/07/04 02:18:27;;;;;;;;;;;18.10;66.40;;;;;;5054442;28;19908;-81
2023/07/04 02:20:53;;;;;;;;;;;18.10;66.00;;;;;;5063424;28;19909;-80
2023/07/04 02:23:19;;;;;;;;;;;18.20;65.90;;;;;;5067942;28;19919;-82
2023/07/04 02:25:44;;;;;;;;;;;18.30;65.90;;;;;;5084339;28;19958;-80
2023/07/04 02:28:10;;;;;;;;;;;18.30;65.80;;;;;;5088383;28;19919;-79
2023/07/04 02:30:36;;;;;;;;;;;18.30;65.70;;;;;;5051811;28;19916;-81
2023/07/04 02:33:02;;;;;;;;;;;18.40;65.80;;;;;;5052548;28;19909;-80
2023/07/04 02:35:29;;;;;;;;;;;18.40;65.70;;;;;;5045058;28;20358;-79
2023/07/04 02:37:55;;;;;;;;;;;18.40;65.70;;;;;;5051724;28;19920;-80
2023/07/04 02:40:20;;;;;;;;;;;18.50;65.70;;;;;;5052568;28;19909;-78
2023/07/04 02:42:46;;;;;;;;;;;18.50;65.60;;;;;;5052521;28;19963;-78
2023/07/04 02:45:12;;;;;;;;;;;18.60;65.60;;;;;;5036825;28;19948;-80
2023/07/04 02:47:37;;;;;;;;;;;18.70;65.70;;;;;;5053021;28;19913;-79
2023/07/04 02:50:03;;;;;;;;;;;18.60;65.60;;;;;;5054701;28;19917;-80
2023/07/04 02:52:30;;;;;;;;;;;18.70;65.70;;;;;;5058212;28;19908;-80
2023/07/04 02:54:56;;;;;;;;;;;18.70;65.70;;;;;;5059056;28;19916;-79
2023/07/04 02:57:22;;;;;;;;;;;18.80;65.70;;;;;;5056506;28;20286;-79
2023/07/04 02:59:48;;;;;;;;;;;18.80;65.60;;;;;;5055798;28;19913;-79
2023/07/04 03:02:13;;;;;;;;;;;19.00;65.60;;;;;;5054594;28;19935;-82
2023/07/04 03:04:39;;;;;;;;;;;19.10;65.50;;;;;;5037765;28;19975;-79
2023/07/04 03:07:05;;;;;;;;;;;19.20;65.40;;;;;;5055997;28;19913;-80
2023/07/04 03:09:31;;;;;;;;;;;19.30;65.10;;;;;;5048212;28;19920;-79
2023/07/04 03:11:57;;;;;;;;;;;19.50;64.90;;;;;;5075412;28;19909;-81
2023/07/04 03:14:23;;;;;;;;;;;19.70;64.70;;;;;;5082566;28;19968;-79
2023/07/04 03:16:49;;;;;;;;;;;19.90;64.30;;;;;;5083603;28;19900;-78
2023/07/04 03:19:14;;;;;;;;;;;20.10;64.00;;;;;;5071895;28;20346;-80
2023/07/04 03:21:40;;;;;;;;;;;20.30;63.70;;;;;;5068941;28;19924;-80
2023/07/04 03:24:06;;;;;;;;;;;20.30;63.10;;;;;;5075770;28;19944;-82
2023/07/04 03:26:34;;;;;;;;;;;20.40;62.90;;;;;;5077014;28;19962;-80
2023/07/04 03:29:00;;;;;;;;;;;20.40;62.70;;;;;;5075960;28;20336;-83
2023/07/04 03:31:26;;;;;;;;;;;20.50;63.30;;;;;;5074589;28;20179;-82
2023/07/04 03:33:51;;;;;;;;;;;20.50;62.30;;;;;;5075297;28;19916;-81
2023/07/04 03:36:17;;;;;;;;;;;20.50;61.80;;;;;;5069742;28;20034;-81
2023/07/04 03:38:43;;;;;;;;;;;20.50;61.70;;;;;;5057519;28;19916;-82
2023/07/04 03:41:08;;;;;;;;;;;20.60;61.70;;;;;;5075687;28;20321;-82
2023/07/04 03:43:34;;;;;;;;;;;20.70;61.50;;;;;;5075420;28;19913;-81
2023/07/04 03:46:00;;;;;;;;;;;20.60;61.00;;;;;;5075189;28;19909;-81
2023/07/04 03:48:25;;;;;;;;;;;20.60;60.90;;;;;;5077176;28;19908;-81
2023/07/04 03:50:51;;;;;;;;;;;20.70;60.70;;;;;;5056758;28;19937;-80
2023/07/04 03:53:17;;;;;;;;;;;20.70;60.70;;;;;;5081160;28;19909;-81
2023/07/04 03:55:43;;;;;;;;;;;20.70;60.60;;;;;;5076192;28;19950;-81
2023/07/04 03:58:08;;;;;;;;;;;20.80;60.60;;;;;;5077628;28;20375;-81
2023/07/04 04:00:34;;;;;;;;;;;20.90;60.60;;;;;;5077129;28;19919;-81
2023/07/04 04:03:00;;;;;;;;;;;21.00;60.40;;;;;;5076584;28;19912;-83
2023/07/04 04:05:27;;;;;;;;;;;21.10;59.80;;;;;;5077016;28;20325;-82
2023/07/04 04:07:52;;;;;;;;;;;21.10;59.90;;;;;;5073145;28;19915;-82
2023/07/04 04:10:18;;;;;;;;;;;21.20;59.90;;;;;;5062276;28;19995;-82
2023/07/04 04:12:44;;;;;;;;;;;21.30;59.90;;;;;;5061086;28;20227;-82
2023/07/04 04:15:10;;;;;;;;;;;21.40;59.70;;;;;;5074883;28;19979;-80
2023/07/04 04:17:36;;;;;;;;;;;21.40;59.30;;;;;;5063378;28;19990;-79
2023/07/04 04:20:10;;;;;;;;;;;21.50;59.40;;;;;;5079369;28;19908;-81
2023/07/04 04:22:37;;;;;;;;;;;21.50;59.10;;;;;;5071568;28;19912;-81
2023/07/04 04:25:02;;;;;;;;;;;21.60;58.80;;;;;;5085048;28;19915;-82
2023/07/04 04:27:30;;;;;;;;;;;21.60;58.60;;;;;;5064097;28;19908;-82
2023/07/04 04:29:56;;;;;;;;;;;21.70;58.60;;;;;;5076434;28;19962;-82
2023/07/04 04:32:22;;;;;;;;;;;21.70;58.50;;;;;;5069542;28;19912;-82
2023/07/04 04:34:48;;;;;;;;;;;21.70;58.40;;;;;;5062294;28;20003;-82
2023/07/04 04:37:14;;;;;;;;;;;21.80;58.40;;;;;;5077000;28;19909;-83
2023/07/04 04:39:39;;;;;;;;;;;21.80;58.10;;;;;;5053771;28;19973;-81
2023/07/04 04:42:06;;;;;;;;;;;21.90;58.10;;;;;;5074528;28;20013;-81
2023/07/04 04:44:32;;;;;;;;;;;21.90;57.90;;;;;;5061529;28;20294;-81
2023/07/04 04:46:58;;;;;;;;;;;21.90;58.00;;;;;;5074061;28;19912;-80
2023/07/04 04:49:24;;;;;;;;;;;22.00;57.70;;;;;;5075810;28;19916;-80
2023/07/04 04:51:52;;;;;;;;;;;22.00;57.50;;;;;;5071362;28;19912;-81
2023/07/04 04:54:17;;;;;;;;;;;22.10;57.60;;;;;;5077776;28;20002;-81
2023/07/04 04:56:46;;;;;;;;;;;22.20;57.60;;;;;;5084495;28;19908;-80
2023/07/04 04:59:12;;;;;;;;;;;22.20;57.50;;;;;;5085382;28;20319;-81
2023/07/04 05:01:38;;;;;;;;;;;22.30;57.40;;;;;;5062771;28;19958;-81
2023/07/04 05:04:04;;;;;;;;;;;22.30;57.00;;;;;;5077720;28;19915;-82
2023/07/04 05:06:32;;;;;;;;;;;22.30;57.00;;;;;;5060064;28;21288;-81
2023/07/04 05:08:58;;;;;;;;;;;22.40;56.90;;;;;;5074984;28;19920;-81
2023/07/04 05:11:24;;;;;;;;;;;22.40;57.00;;;;;;5067340;28;19918;-81
2023/07/04 05:13:50;;;;;;;;;;;22.60;57.90;;;;;;5074539;28;20293;-82
2023/07/04 05:16:19;;;;;;;;;;;23.00;57.90;;;;;;5054553;28;19915;-82
2023/07/04 05:18:45;;;;;;;;;;;23.90;57.60;;;;;;5057174;28;20262;-81
2023/07/04 05:21:13;;;;;;;;;;;24.90;56.30;;;;;;5059252;28;19935;-82
2023/07/04 05:23:40;;;;;;;;;;;26.00;53.00;;;;;;5071131;28;20409;-81
2023/07/04 05:26:07;;;;;;;;;;;27.10;52.30;;;;;;5066124;28;19909;-82
2023/07/04 05:28:33;;;;;;;;;;;28.00;49.80;;;;;;5067061;28;20254;-81
2023/07/04 05:31:00;;;;;;;;;;;28.60;47.80;;;;;;5065922;28;19916;-82
2023/07/04 05:33:26;;;;;;;;;;;28.90;46.50;;;;;;5065425;28;20282;-82
2023/07/04 05:35:52;;;;;;;;;;;;;;;;;;5073795;28;19908;-82
2023/07/04 05:38:18;;;;;;;;;;;;;;;;;;5058653;28;19916;-83
2023/07/04 05:40:44;;;;;;;;;;;;;;;;;;5075210;28;19955;-81
2023/07/04 05:43:10;;;;;;;;;;;;;;;;;;5073602;28;20401;-82
2023/07/04 05:45:36;;;;;;;;;;;;;;;;;;5073259;28;20015;-81
2023/07/04 05:48:01;;;;;;;;;;;29.60;48.10;;;;;;5067278;28;19909;-80
2023/07/04 05:50:27;;;;;;;;;;;32.40;42.60;;;;;;5066730;28;19920;-82
2023/07/04 05:52:52;;;;;;;;;;;32.90;42.60;;;;;;5056682;28;20362;-82
2023/07/04 05:55:19;;;;;;;;;;;33.30;41.90;;;;;;5073719;28;19908;-82
2023/07/04 05:57:44;;;;;;;;;;;33.70;41.00;;;;;;5073840;28;19921;-82
2023/07/04 06:00:10;;;;;;;;;;;33.90;39.80;;;;;;5074316;28;19909;-82
2023/07/04 06:02:36;;;;;;;;;;;34.20;39.90;;;;;;5073497;28;19915;-82
2023/07/04 06:05:02;;;;;;;;;;;34.30;39.20;;;;;;5073871;28;19916;-81
2023/07/04 06:07:30;;;;;;;;;;;34.60;39.00;;;;;;5074033;28;19912;-82
2023/07/04 06:09:56;;;;;;;;;;;34.80;38.80;;;;;;5054546;28;19921;-82
2023/07/04 06:12:22;;;;;;;;;;;;;;;;;;5074985;28;19909;-82
2023/07/04 06:14:48;;;;;;;;;;;;;;;;;;5059934;28;20289;-81
2023/07/04 06:17:14;;;;;;;;;;;;;;;;;;5082560;28;19893;-82
2023/07/04 06:19:40;;;;;;;;;;;36.00;37.10;;;;;;5060235;28;19924;-82
2023/07/04 06:22:07;;;;;;;;;;;36.40;37.30;;;;;;5064790;28;19912;-80
2023/07/04 06:24:32;;;;;;;;;;;36.60;36.90;;;;;;5063408;28;19912;-79
2023/07/04 06:26:58;;;;;;;;;;;37.50;37.10;;;;;;5069897;28;19915;-78
2023/07/04 06:29:24;;;;;;;;;;;38.50;36.90;;;;;;5076689;28;20434;-80
2023/07/04 06:31:50;;;;;;;;;;;39.00;35.30;;;;;;5081196;28;19915;-81
2023/07/04 06:34:15;;;;;;;;;;;39.40;35.20;;;;;;5083839;28;19935;-81
2023/07/04 06:36:45;;;;;;;;;;;39.80;35.30;;;;;;5081617;28;19908;-78
2023/07/04 06:39:11;;;;;;;;;;;40.10;33.20;;;;;;5075431;28;19913;-76
2023/07/04 06:41:37;;;;;;;;;;;39.50;32.30;;;;;;5076802;28;19916;-77
2023/07/04 06:44:02;;;;;;;;;;;39.70;32.70;;;;;;5076055;28;19953;-77
2023/07/04 06:46:28;;;;;;;;;;;39.90;33.10;;;;;;5075447;28;20009;-78
2023/07/04 06:48:54;;;;;;;;;;;40.40;32.90;;;;;;5075536;28;19959;-77
2023/07/04 06:51:20;;;;;;;;;;;40.50;32.50;;;;;;5075429;28;19978;-79
2023/07/04 06:53:46;;;;;;;;;;;;;;;;;;5075221;28;19912;-77
2023/07/04 06:56:12;;;;;;;;;;;;;;;;;;5074585;28;19913;-76
2023/07/04 06:58:37;;;;;;;;;;;;;;;;;;5075213;28;19919;-76
2023/07/04 07:01:04;;;;;;;;;;;41.00;33.00;;;;;;5074907;28;19927;-76
2023/07/04 07:03:30;;;;;;;;;;;42.80;29.90;;;;;;5074163;28;19916;-78
2023/07/04 07:05:56;;;;;;;;;;;42.40;30.40;;;;;;5075449;28;20007;-77
2023/07/04 07:08:22;;;;;;;;;;;42.20;29.70;;;;;;5053937;28;20004;-77
2023/07/04 07:10:52;;;;;;;;;;;41.40;30.00;;;;;;5070305;28;19924;-77
2023/07/04 07:13:18;;;;;;;;;;;41.90;30.60;;;;;;5056042;28;19912;-79
2023/07/04 07:15:44;;;;;;;;;;;42.60;30.60;;;;;;5074784;28;20377;-78
2023/07/04 07:18:09;;;;;;;;;;;43.10;30.00;;;;;;5074583;28;19913;-77
2023/07/04 07:20:35;;;;;;;;;;;43.30;29.70;;;;;;5053459;28;19920;-79
2023/07/04 07:23:01;;;;;;;;;;;43.00;29.50;;;;;;5056953;28;19932;-78
2023/07/04 07:25:26;;;;;;;;;;;43.00;29.50;;;;;;5073847;28;20320;-78
2023/07/04 07:27:52;;;;;;;;;;;42.30;29.10;;;;;;5075542;28;19960;-78
2023/07/04 07:30:18;;;;;;;;;;;41.10;29.10;;;;;;5074071;28;20037;-78
2023/07/04 07:32:43;;;;;;;;;;;39.40;29.60;;;;;;5074773;28;19908;-79
2023/07/04 07:35:09;;;;;;;;;;;39.60;30.40;;;;;;5074541;28;19920;-78
2023/07/04 07:37:35;;;;;;;;;;;40.80;30.60;;;;;;5074310;28;19919;-79
2023/07/04 07:40:03;;;;;;;;;;;41.20;29.70;;;;;;5074317;28;19908;-78
2023/07/04 07:42:30;;;;;;;;;;;41.20;30.00;;;;;;5074885;28;20281;-79
2023/07/04 07:44:56;;;;;;;;;;;41.10;29.70;;;;;;5074411;28;19913;-77
2023/07/04 07:47:22;;;;;;;;;;;;;;;;;;5073925;28;20361;-78
2023/07/04 07:49:47;;;;;;;;;;;35.80;30.80;;;;;;5074144;28;20472;-77
2023/07/04 07:52:13;;;;;;;;;;;35.40;31.00;;;;;;5074295;28;19908;-77
2023/07/04 07:54:39;;;;;;;;;;;34.10;32.40;;;;;;5059957;28;19909;-80
2023/07/04 07:57:04;;;;;;;;;;;33.40;33.20;;;;;;5056225;28;20626;-77
2023/07/04 07:59:30;;;;;;;;;;;;;;;;;;5074048;28;19919;-78
2023/07/04 08:01:57;;;;;;;;;;;32.40;34.30;;;;;;5055674;28;20038;-79
2023/07/04 08:04:23;;;;;;;;;;;30.90;35.00;;;;;;5073878;28;19909;-77
2023/07/04 08:06:49;;;;;;;;;;;;;;;;;;5074069;28;19962;-78
2023/07/04 08:09:17;;;;;;;;;;;30.40;35.60;;;;;;5056087;28;19967;-77
2023/07/04 08:11:45;;;;;;;;;;;29.60;36.80;;;;;;5078432;28;19908;-77
2023/07/04 08:14:14;;;;;;;;;;;29.40;37.50;;;;;;5075303;28;20421;-78
2023/07/04 08:16:42;;;;;;;;;;;29.90;38.30;;;;;;5073243;28;19931;-77
2023/07/04 08:19:08;;;;;;;;;;;30.80;37.60;;;;;;5073981;28;20410;-78
2023/07/04 08:21:34;;;;;;;;;;;30.90;37.20;;;;;;5060637;28;19947;-76
2023/07/04 08:23:59;;;;;;;;;;;31.30;37.80;;;;;;5076186;28;19934;-78
2023/07/04 08:26:26;;;;;;;;;;;33.10;37.00;;;;;;5058601;28;19963;-77
2023/07/04 08:28:52;;;;;;;;;;;34.70;35.70;;;;;;5055426;28;20281;-77
2023/07/04 08:31:18;;;;;;;;;;;34.40;34.40;;;;;;5073512;28;19955;-78
2023/07/04 08:33:45;;;;;;;;;;;34.00;34.70;;;;;;5072406;28;19912;-78
2023/07/04 08:36:11;;;;;;;;;;;33.60;34.50;;;;;;5073232;28;19963;-77
2023/07/04 08:38:36;;;;;;;;;;;34.20;35.00;;;;;;5073112;28;20028;-77
2023/07/04 08:41:02;;;;;;;;;;;36.00;35.00;;;;;;5073061;28;19912;-77
2023/07/04 08:43:28;;;;;;;;;;;38.40;32.00;;;;;;5072980;28;19908;-77
2023/07/04 08:45:54;;;;;;;;;;;;;;;;;;5073218;28;19908;-77
2023/07/04 08:48:21;;;;;;;;;;;39.00;31.70;;;;;;5073823;28;19908;-78
2023/07/04 08:50:48;;;;;;;;;;;41.50;31.00;;;;;;5069897;28;20371;-79
2023/07/04 08:53:13;;;;;;;;;;;41.40;30.00;;;;;;5071724;28;19909;-77
2023/07/04 08:55:42;;;;;;;;;;;41.10;30.10;;;;;;5072703;28;20254;-76
2023/07/04 08:58:09;;;;;;;;;;;40.80;29.60;;;;;;5072809;28;19999;-79
2023/07/04 09:00:37;;;;;;;;;;;40.30;29.80;;;;;;5072985;28;19909;-78
2023/07/04 09:03:07;;;;;;;;;;;40.50;29.70;;;;;;5073001;28;19908;-78
2023/07/04 09:05:59;;;;;;;;;;;39.60;29.60;;;;;;5070868;28;19969;-79
2023/07/04 09:08:28;;;;;;;;;;;35.50;30.00;;;;;;5060213;28;20258;-78
2023/07/04 09:10:58;;;;;;;;;;;34.90;30.90;;;;;;5072679;28;19920;-79
2023/07/04 09:13:29;;;;;;;;;;;33.70;32.00;;;;;;5059921;28;19963;-77
2023/07/04 09:15:57;;;;;;;;;;;33.00;32.80;;;;;;5073485;28;19912;-79
2023/07/04 09:18:55;;;;;;;;;;;33.00;33.70;;;;;;5054865;28;19986;-78
2023/07/04 09:21:21;;;;;;;;;;;37.10;31.70;;;;;;5029964;28;19920;-78
2023/07/04 09:23:48;;;;;;;;;;;37.50;32.30;;;;;;5072713;28;19912;-78
2023/07/04 09:26:21;;;;;;;;;;;37.80;30.50;;;;;;5054533;28;19908;-78
2023/07/04 09:28:49;;;;;;;;;;;37.50;30.30;;;;;;5072555;28;19908;-80
2023/07/04 09:31:36;;;;;;;;;;;38.10;30.60;;;;;;5072544;28;19951;-77
2023/07/04 09:34:03;;;;;;;;;;;39.60;30.10;;;;;;5068173;28;19909;-76
2023/07/04 09:36:33;;;;;;;;;;;40.70;29.80;;;;;;5063107;28;20285;-79
2023/07/04 09:39:00;;;;;;;;;;;41.00;29.30;;;;;;5071940;28;19965;-78
2023/07/04 09:41:29;;;;;;;;;;;40.70;29.00;;;;;;5071497;28;20532;-78
2023/07/04 09:43:56;;;;;;;;;;;40.70;29.10;;;;;;5072303;28;19920;-77
2023/07/04 09:46:27;;;;;;;;;;;41.10;29.90;;;;;;5072578;28;19909;-78
2023/07/04 09:48:53;;;;;;;;;;;;;;;;;;5073395;28;20267;-77
2023/07/04 09:51:24;;;;;;;;;;;41.60;28.80;;;;;;5056030;28;19942;-80
2023/07/04 09:53:49;;;;;;;;;;;42.60;29.00;;;;;;5072910;28;19954;-77
2023/07/04 09:56:26;;;;;;;;;;;43.20;28.20;;;;;;5072407;28;20377;-79
2023/07/04 09:58:52;;;;;;;;;;;;;;;;;;5060773;28;19978;-78
2023/07/04 10:01:17;;;;;;;;;;;;;;;;;;5072432;28;19913;-79
2023/07/04 10:03:45;;;;;;;;;;;;;;;;;;5081336;28;20373;-78
2023/07/04 10:06:11;;;;;;;;;;;43.30;28.40;;;;;;5083422;28;19917;-78
2023/07/04 10:08:55;;;;;;;;;;;44.60;28.00;;;;;;5084160;28;19999;-79
2023/07/04 10:11:24;;;;;;;;;;;44.50;27.70;;;;;;5078999;28;19917;-76
2023/07/04 10:13:50;;;;;;;;;;;;;;;;;;5078307;28;20340;-78
2023/07/04 10:16:16;;;;;;;;;;;;;;;;;;5078953;28;20000;-78
2023/07/04 10:18:42;;;;;;;;;;;;;;;;;;5078853;28;20050;-77
2023/07/04 10:21:08;;;;;;;;;;;;;;;;;;5068974;28;20007;-80
2023/07/04 10:23:34;;;;;;;;;;;42.70;26.20;;;;;;5075042;28;19909;-78
2023/07/04 10:26:00;;;;;;;;;;;;;;;;;;5078220;28;19912;-80
2023/07/04 10:28:27;;;;;;;;;;;41.20;27.30;;;;;;5078925;28;19954;-80
2023/07/04 10:30:58;;;;;;;;;;;40.30;27.60;;;;;;5079069;28;20319;-78
2023/07/04 10:33:24;;;;;;;;;;;;;;;;;;5061428;28;20015;-78
2023/07/04 10:35:50;;;;;;;;;;;;;;;;;;5080390;28;19919;-79
2023/07/04 10:38:25;;;;;;;;;;;37.00;28.00;;;;;;5061017;28;19990;-79
2023/07/04 10:40:52;;;;;;;;;;;35.30;29.00;;;;;;5078600;28;19962;-77
2023/07/04 10:43:17;;;;;;;;;;;;;;;;;;5059718;28;19966;-78
2023/07/04 10:45:44;;;;;;;;;;;33.70;29.90;;;;;;5078424;28;20361;-80
2023/07/04 10:48:12;;;;;;;;;;;31.60;31.20;;;;;;5078847;28;19908;-78
2023/07/04 10:50:58;;;;;;;;;;;30.90;31.80;;;;;;5078304;28;19981;-79
2023/07/04 10:53:24;;;;;;;;;;;30.40;32.60;;;;;;5078648;28;20416;-79
2023/07/04 10:56:01;;;;;;;;;;;29.90;32.90;;;;;;5079068;28;19912;-79
2023/07/04 10:58:33;;;;;;;;;;;29.70;33.50;;;;;;5078549;28;19908;-79
2023/07/04 11:01:01;;;;;;;;;;;29.60;34.40;;;;;;5078736;28;20000;-79
2023/07/04 11:03:32;;;;;;;;;;;29.30;35.10;;;;;;5078686;28;19913;-79
2023/07/04 11:05:59;;;;;;;;;;;29.20;35.30;;;;;;5078813;28;20369;-79
2023/07/04 11:08:29;;;;;;;;;;;28.90;35.90;;;;;;5078759;28;19951;-78
2023/07/04 11:10:59;;;;;;;;;;;28.70;36.20;;;;;;5058744;28;19921;-77
2023/07/04 11:13:25;;;;;;;;;;;28.60;35.90;;;;;;5043337;28;19908;-78
2023/07/04 11:15:56;;;;;;;;;;;28.50;35.90;;;;;;5055590;28;19919;-81
2023/07/04 11:18:26;;;;;;;;;;;28.50;35.80;;;;;;5050425;28;20264;-79
2023/07/04 11:20:53;;;;;;;;;;;28.30;35.70;;;;;;5047084;28;20004;-79
2023/07/04 11:23:20;;;;;;;;;;;28.20;35.90;;;;;;5048834;28;19916;-79
2023/07/04 11:25:46;;;;;;;;;;;28.10;36.00;;;;;;5047117;28;19931;-79
2023/07/04 11:28:17;;;;;;;;;;;27.90;36.30;;;;;;5054926;28;19909;-78
2023/07/04 11:30:47;;;;;;;;;;;27.70;36.70;;;;;;5054601;28;19923;-79
2023/07/04 11:33:38;;;;;;;;;;;27.50;37.30;;;;;;5054761;28;19912;-79
2023/07/04 11:36:05;;;;;;;;;;;27.30;37.70;;;;;;5036385;28;19913;-79
2023/07/04 11:38:31;;;;;;;;;;;27.20;37.90;;;;;;5054617;28;19912;-79
2023/07/04 11:40:58;;;;;;;;;;;27.10;38.10;;;;;;5054579;28;19955;-77
2023/07/04 11:43:27;;;;;;;;;;;27.10;38.20;;;;;;5052288;28;19931;-79
2023/07/04 11:45:55;;;;;;;;;;;27.10;38.60;;;;;;5054864;28;19916;-77
2023/07/04 11:48:22;;;;;;;;;;;27.00;38.80;;;;;;5055792;28;19957;-78
2023/07/04 11:50:49;;;;;;;;;;;27.00;38.40;;;;;;5059353;28;19921;-78
2023/07/04 11:53:16;;;;;;;;;;;27.00;38.30;;;;;;5055884;28;19916;-78
2023/07/04 11:55:42;;;;;;;;;;;27.00;38.20;;;;;;5055039;28;19909;-79
2023/07/04 11:58:07;;;;;;;;;;;27.20;38.30;;;;;;5057273;28;19946;-78
2023/07/04 12:00:39;;;;;;;;;;;27.40;38.50;;;;;;5059251;28;20282;-78
2023/07/04 12:03:17;;;;;;;;;;;27.50;38.20;;;;;;5054876;28;20583;-77
2023/07/04 12:05:44;;;;;;;;;;;27.50;38.10;;;;;;5054211;28;19919;-78
2023/07/04 12:08:15;;;;;;;;;;;27.40;38.00;;;;;;5053915;28;20333;-76
2023/07/04 12:10:41;;;;;;;;;;;27.30;38.00;;;;;;5053101;28;20410;-77
2023/07/04 12:13:07;;;;;;;;;;;27.40;38.20;;;;;;5036000;28;20031;-76
2023/07/04 12:15:34;;;;;;;;;;;27.50;38.50;;;;;;5054151;28;19955;-78
2023/07/04 12:18:00;;;;;;;;;;;27.50;38.50;;;;;;5036169;28;19916;-78
2023/07/04 12:20:27;;;;;;;;;;;27.50;38.40;;;;;;5049611;28;19999;-78
2023/07/04 12:22:54;;;;;;;;;;;27.40;38.40;;;;;;5026581;28;19912;-77
2023/07/04 12:25:22;;;;;;;;;;;27.40;38.70;;;;;;5052525;28;20257;-77
2023/07/04 12:27:48;;;;;;;;;;;27.30;38.60;;;;;;5053355;28;19917;-77
2023/07/04 12:30:14;;;;;;;;;;;27.40;38.70;;;;;;5051589;28;20271;-77
2023/07/04 12:32:40;;;;;;;;;;;27.50;38.60;;;;;;5053658;28;19919;-76
2023/07/04 12:35:06;;;;;;;;;;;27.50;38.60;;;;;;5052280;28;20336;-77
2023/07/04 12:37:39;;;;;;;;;;;27.50;38.50;;;;;;5053315;28;19909;-79
2023/07/04 12:40:10;;;;;;;;;;;27.40;37.90;;;;;;5053532;28;20031;-77
2023/07/04 12:42:36;;;;;;;;;;;27.30;38.10;;;;;;5051909;28;20286;-76
2023/07/04 12:45:15;;;;;;;;;;;27.40;38.10;;;;;;5053231;28;19915;-77
2023/07/04 12:47:41;;;;;;;;;;;27.50;38.10;;;;;;5052031;28;19917;-77
2023/07/04 12:50:08;;;;;;;;;;;27.60;38.00;;;;;;5056562;28;20206;-77
2023/07/04 12:52:36;;;;;;;;;;;27.70;37.70;;;;;;5048909;28;19969;-76
2023/07/04 12:55:02;;;;;;;;;;;27.60;37.70;;;;;;5053531;28;19916;-79
2023/07/04 12:57:29;;;;;;;;;;;27.50;37.90;;;;;;5052028;28;19935;-77
2023/07/04 13:00:07;;;;;;;;;;;27.50;37.80;;;;;;5053471;28;19916;-77
2023/07/04 13:02:34;;;;;;;;;;;27.40;37.70;;;;;;5054381;28;20409;-78
2023/07/04 13:05:02;;;;;;;;;;;27.40;37.80;;;;;;5033954;28;19917;-76
2023/07/04 13:07:28;;;;;;;;;;;27.40;37.90;;;;;;5050375;28;19979;-76
2023/07/04 13:09:55;;;;;;;;;;;27.40;38.10;;;;;;5049335;28;20035;-78
2023/07/04 13:12:32;;;;;;;;;;;27.40;38.10;;;;;;5074251;28;19997;-76
2023/07/04 13:15:24;;;;;;;;;;;27.50;38.20;;;;;;5079035;28;19919;-77
2023/07/04 13:18:08;;;;;;;;;;;27.60;38.00;;;;;;5056335;28;19908;-76
2023/07/04 13:20:36;;;;;;;;;;;27.70;38.30;;;;;;5067029;28;20413;-77
2023/07/04 13:23:18;;;;;;;;;;;27.70;37.90;;;;;;5064961;28;20327;-77
2023/07/04 13:25:46;;;;;;;;;;;27.70;37.90;;;;;;5073004;28;19908;-78
2023/07/04 13:28:23;;;;;;;;;;;27.60;37.90;;;;;;5072996;28;19954;-80
2023/07/04 13:30:49;;;;;;;;;;;27.50;37.90;;;;;;5073553;28;19916;-77
2023/07/04 13:33:30;;;;;;;;;;;27.50;37.90;;;;;;5075205;28;20460;-78
2023/07/04 13:36:07;;;;;;;;;;;27.60;37.80;;;;;;5074092;28;19912;-77
2023/07/04 13:38:32;;;;;;;;;;;27.60;38.20;;;;;;5071213;28;20011;-78
2023/07/04 13:40:58;;;;;;;;;;;28.10;38.50;;;;;;5072346;28;19980;-79
2023/07/04 13:43:24;;;;;;;;;;;28.40;37.90;;;;;;5072158;28;19915;-79
2023/07/04 13:45:50;;;;;;;;;;;28.60;37.70;;;;;;5072388;28;19909;-77
2023/07/04 13:48:15;;;;;;;;;;;29.40;37.80;;;;;;5054394;28;19930;-78
2023/07/04 13:50:41;;;;;;;;;;;30.60;37.30;;;;;;5071523;28;20458;-79
2023/07/04 13:53:10;;;;;;;;;;;31.60;36.90;;;;;;5072351;28;20324;-78
2023/07/04 13:55:36;;;;;;;;;;;32.50;36.40;;;;;;5073248;28;19912;-78
2023/07/04 13:58:02;;;;;;;;;;;33.30;36.00;;;;;;5072625;28;19952;-79
2023/07/04 14:00:28;;;;;;;;;;;33.50;34.80;;;;;;5072746;28;19912;-77
2023/07/04 14:02:54;;;;;;;;;;;32.60;34.50;;;;;;5072238;28;19909;-78
2023/07/04 14:05:20;;;;;;;;;;;31.40;34.50;;;;;;5071458;28;19948;-78
2023/07/04 14:07:46;;;;;;;;;;;31.30;34.90;;;;;;5052737;28;19979;-78
2023/07/04 14:10:15;;;;;;;;;;;31.60;34.90;;;;;;5072271;28;19920;-79
2023/07/04 14:12:41;;;;;;;;;;;32.10;35.10;;;;;;5071844;28;19967;-78
2023/07/04 14:15:08;;;;;;;;;;;32.80;35.10;;;;;;5053212;28;20556;-78
2023/07/04 14:17:33;;;;;;;;;;;33.30;34.90;;;;;;5071938;28;19908;-79
2023/07/04 14:19:59;;;;;;;;;;;33.50;34.50;;;;;;5071261;28;19908;-78
2023/07/04 14:22:25;;;;;;;;;;;32.70;33.90;;;;;;5058608;28;19919;-78
2023/07/04 14:24:50;;;;;;;;;;;31.40;33.80;;;;;;5070128;28;20251;-78
2023/07/04 14:27:16;;;;;;;;;;;30.10;34.60;;;;;;5070521;28;19908;-78